Main page
METAR-TAF:

METAR-TAF

Airports :

Cotulla–La Salle County Airport

Cotulla, Texas, United States

latitude: 28-27-30N, longitude: 099-13-13W, elevation: 476 ft

Current weather observation

The report was made 56 minutes ago, at 16:53 UTC
Wind 7 mph from the South/Southeast
Temperature 93°F
Humidity 44%
Pressure 29.94 in. Hg
Visibility: 10 miles
Clear sky

METAR: KCOT 141653Z AUTO 16006KT 10SM CLR 34/20 A2994 RMK AO2 SLP128 T03390200

Time: 12:49 (17:49 UTC)

Forecast

The report was made 25 minutes ago, at 17:24 UTC
Forecast valid from 14 at 18 UTC to 15 at 18 UTC
Wind 9 mph from the South/Southeast
Visibility: 6 miles
Few clouds at a height of 4000 ft
From 15 at 0900 UTC
Wind 6 mph from the East
Visibility: 6 miles
Clear sky

TAF: KCOT 141724Z 1418/1518 15008KT P6SM FEW040 FM150900 10005KT P6SM SKC

Weather observations and forecasts of more than 4000 airports (METAR and TAF reports).

The available stations are represented by yellow and red dots on the map.

Hover mouse over dot to see the name of the station.

Then click to see weather observations and forecasts.

To change the map : click on the green buttons with a black cross to zoom in, on the green button with a dash to zoom out, or on the green arrows for adjacent maps.


METAR-TAF: